sensor_id;sensor_type;location;lat;lon;timestamp;pressure;altitude;pressure_sealevel;temperature;humidity
57904;BME280;43720;47.462;19.030;2024-02-26T04:57:27;99480.00;;;9.04;100.00
57904;BME280;43720;47.462;19.030;2024-02-26T05:00:30;99476.53;;;9.06;100.00
57904;BME280;43720;47.462;19.030;2024-02-26T05:03:32;99468.72;;;9.08;100.00
57904;BME280;43720;47.462;19.030;2024-02-26T05:06:38;99482.63;;;9.09;100.00
57904;BME280;43720;47.462;19.030;2024-02-26T05:09:40;99476.47;;;9.02;100.00
57904;BME280;43720;47.462;19.030;2024-02-26T05:12:44;99477.38;;;9.04;100.00
57904;BME280;43720;47.462;19.030;2024-02-26T05:15:46;99478.22;;;9.00;100.00
57904;BME280;43720;47.462;19.030;2024-02-26T05:18:51;99484.31;;;8.99;100.00
57904;BME280;43720;47.462;19.030;2024-02-26T05:21:53;99479.97;;;8.99;100.00
57904;BME280;43720;47.462;19.030;2024-02-26T05:24:56;99481.69;;;8.97;100.00
57904;BME280;43720;47.462;19.030;2024-02-26T05:27:58;99486.03;;;8.97;100.00
57904;BME280;43720;47.462;19.030;2024-02-26T05:31:01;99475.66;;;9.07;100.00
57904;BME280;43720;47.462;19.030;2024-02-26T05:34:03;99478.28;;;9.14;100.00
57904;BME280;43720;47.462;19.030;2024-02-26T05:37:06;99478.31;;;9.11;100.00
57904;BME280;43720;47.462;19.030;2024-02-26T05:40:10;99472.22;;;9.16;100.00
57904;BME280;43720;47.462;19.030;2024-02-26T05:43:12;99470.53;;;9.20;100.00
57904;BME280;43720;47.462;19.030;2024-02-26T05:46:18;99467.00;;;9.13;100.00
57904;BME280;43720;47.462;19.030;2024-02-26T05:49:22;99473.97;;;9.14;100.00
57904;BME280;43720;47.462;19.030;2024-02-26T05:52:24;99480.09;;;9.18;100.00
57904;BME280;43720;47.462;19.030;2024-02-26T05:55:28;99480.94;;;9.18;100.00
57904;BME280;43720;47.462;19.030;2024-02-26T05:58:30;99478.28;;;9.14;100.00
57904;BME280;43720;47.462;19.030;2024-02-26T06:01:32;99475.72;;;9.20;100.00
57904;BME280;43720;47.462;19.030;2024-02-26T06:04:36;99478.41;;;9.32;100.00
57904;BME280;43720;47.462;19.030;2024-02-26T06:07:40;99474.09;;;9.39;100.00
57904;BME280;43720;47.462;19.030;2024-02-26T06:10:42;99485.44;;;9.50;100.00
57904;BME280;43720;47.462;19.030;2024-02-26T06:13:44;99487.19;;;9.49;100.00
57904;BME280;43720;47.462;19.030;2024-02-26T06:16:47;99495.03;;;9.54;100.00
57904;BME280;43720;47.462;19.030;2024-02-26T06:19:50;99492.47;;;9.62;100.00
57904;BME280;43720;47.462;19.030;2024-02-26T06:22:52;99497.66;;;9.57;100.00
57904;BME280;43720;47.462;19.030;2024-02-26T06:25:54;99501.16;;;9.62;100.00
57904;BME280;43720;47.462;19.030;2024-02-26T06:28:57;99508.16;;;9.75;100.00
57904;BME280;43720;47.462;19.030;2024-02-26T06:31:59;99499.47;;;9.79;100.00
57904;BME280;43720;47.462;19.030;2024-02-26T06:35:02;99502.09;;;9.83;100.00
57904;BME280;43720;47.462;19.030;2024-02-26T06:38:09;99504.69;;;9.79;100.00
57904;BME280;43720;47.462;19.030;2024-02-26T06:41:13;99498.59;;;9.82;100.00
57904;BME280;43720;47.462;19.030;2024-02-26T06:44:16;99505.59;;;9.80;100.00
57904;BME280;43720;47.462;19.030;2024-02-26T06:47:18;99509.97;;;9.89;100.00
57904;BME280;43720;47.462;19.030;2024-02-26T06:50:21;99500.38;;;9.94;100.00
57904;BME280;43720;47.462;19.030;2024-02-26T06:53:25;99502.19;;;10.07;100.00
57904;BME280;43720;47.462;19.030;2024-02-26T06:56:27;99508.25;;;10.01;100.00
57904;BME280;43720;47.462;19.030;2024-02-26T06:59:30;99504.78;;;9.99;100.00
57904;BME280;43720;47.462;19.030;2024-02-26T07:02:33;99510.88;;;10.00;100.00
57904;BME280;43720;47.462;19.030;2024-02-26T07:05:40;99518.69;;;10.06;100.00
57904;BME280;43720;47.462;19.030;2024-02-26T07:08:43;99517.84;;;10.13;100.00
57904;BME280;43720;47.462;19.030;2024-02-26T07:11:45;99505.72;;;10.27;100.00
57904;BME280;43720;47.462;19.030;2024-02-26T07:14:48;99508.34;;;10.27;100.00
57904;BME280;43720;47.462;19.030;2024-02-26T07:17:51;99512.69;;;10.32;100.00
57904;BME280;43720;47.462;19.030;2024-02-26T07:20:55;99515.31;;;10.36;100.00
57904;BME280;43720;47.462;19.030;2024-02-26T07:23:58;99509.25;;;10.59;100.00
57904;BME280;43720;47.462;19.030;2024-02-26T07:27:03;99511.84;;;10.94;100.00
57904;BME280;43720;47.462;19.030;2024-02-26T07:30:07;99511.81;;;11.11;100.00
57904;BME280;43720;47.462;19.030;2024-02-26T07:33:10;99519.63;;;11.26;100.00
57904;BME280;43720;47.462;19.030;2024-02-26T07:36:13;99529.22;;;11.39;100.00
57904;BME280;43720;47.462;19.030;2024-02-26T07:39:15;99524.84;;;11.34;100.00
57904;BME280;43720;47.462;19.030;2024-02-26T07:42:17;99535.31;;;11.32;100.00
57904;BME280;43720;47.462;19.030;2024-02-26T07:45:20;99524.84;;;11.40;100.00
57904;BME280;43720;47.462;19.030;2024-02-26T07:48:23;99531.81;;;11.42;100.00
57904;BME280;43720;47.462;19.030;2024-02-26T07:51:25;99522.25;;;11.26;100.00
57904;BME280;43720;47.462;19.030;2024-02-26T07:54:28;99523.13;;;11.20;100.00
57904;BME280;43720;47.462;19.030;2024-02-26T07:57:32;99525.75;;;11.13;100.00
57904;BME280;43720;47.462;19.030;2024-02-26T08:00:36;99531.88;;;11.10;100.00
57904;BME280;43720;47.462;19.030;2024-02-26T08:03:38;99531.88;;;11.16;100.00
57904;BME280;43720;47.462;19.030;2024-02-26T08:06:41;99534.44;;;11.22;100.00
57904;BME280;43720;47.462;19.030;2024-02-26T08:09:43;99538.78;;;11.45;100.00
57904;BME280;43720;47.462;19.030;2024-02-26T08:12:46;99544.03;;;11.39;100.00
57904;BME280;43720;47.462;19.030;2024-02-26T08:15:48;99544.00;;;11.49;100.00
57904;BME280;43720;47.462;19.030;2024-02-26T08:18:50;99542.19;;;11.71;100.00
57904;BME280;43720;47.462;19.030;2024-02-26T08:21:53;99543.91;;;11.72;100.00
57904;BME280;43720;47.462;19.030;2024-02-26T08:24:55;99543.94;;;11.71;100.00
57904;BME280;43720;47.462;19.030;2024-02-26T08:27:58;99538.66;;;11.79;100.00
57904;BME280;43720;47.462;19.030;2024-02-26T08:31:02;99541.28;;;11.85;100.00
57904;BME280;43720;47.462;19.030;2024-02-26T08:34:05;99538.66;;;11.82;100.00
57904;BME280;43720;47.462;19.030;2024-02-26T08:37:09;99538.66;;;11.80;100.00
57904;BME280;43720;47.462;19.030;2024-02-26T08:40:11;99536.91;;;11.79;100.00
57904;BME280;43720;47.462;19.030;2024-02-26T08:43:14;99544.78;;;11.79;100.00
57904;BME280;43720;47.462;19.030;2024-02-26T08:46:17;99538.69;;;11.75;100.00
57904;BME280;43720;47.462;19.030;2024-02-26T08:49:20;99539.56;;;11.71;100.00
57904;BME280;43720;47.462;19.030;2024-02-26T08:52:25;99541.28;;;11.72;100.00
57904;BME280;43720;47.462;19.030;2024-02-26T08:55:27;99539.56;;;11.78;100.00
57904;BME280;43720;47.462;19.030;2024-02-26T08:58:31;99539.59;;;11.64;100.00
57904;BME280;43720;47.462;19.030;2024-02-26T09:01:33;99543.09;;;11.57;100.00
57904;BME280;43720;47.462;19.030;2024-02-26T09:04:35;99543.97;;;11.57;100.00
57904;BME280;43720;47.462;19.030;2024-02-26T09:07:38;99548.38;;;11.47;100.00
57904;BME280;43720;47.462;19.030;2024-02-26T09:10:41;99550.97;;;11.52;100.00
57904;BME280;43720;47.462;19.030;2024-02-26T09:13:43;99554.47;;;11.45;100.00
57904;BME280;43720;47.462;19.030;2024-02-26T09:16:46;99559.66;;;11.65;100.00
57904;BME280;43720;47.462;19.030;2024-02-26T09:19:50;99552.69;;;11.70;100.00
57904;BME280;43720;47.462;19.030;2024-02-26T09:22:52;99552.66;;;11.85;100.00
57904;BME280;43720;47.462;19.030;2024-02-26T09:25:55;99555.28;;;11.74;100.00
57904;BME280;43720;47.462;19.030;2024-02-26T09:28:57;99568.31;;;11.81;100.00
57904;BME280;43720;47.462;19.030;2024-02-26T09:32:00;99561.34;;;11.93;100.00
57904;BME280;43720;47.462;19.030;2024-02-26T09:35:03;99560.38;;;12.10;100.00
57904;BME280;43720;47.462;19.030;2024-02-26T09:38:06;99560.41;;;12.08;100.00
57904;BME280;43720;47.462;19.030;2024-02-26T09:41:17;99565.72;;;11.93;100.00
57904;BME280;43720;47.462;19.030;2024-02-26T09:44:19;99565.66;;;12.04;100.00
57904;BME280;43720;47.462;19.030;2024-02-26T09:47:26;99559.56;;;12.02;100.00
57904;BME280;43720;47.462;19.030;2024-02-26T09:50:30;99568.28;;;12.05;100.00
57904;BME280;43720;47.462;19.030;2024-02-26T09:53:32;99570.88;;;12.13;100.00
57904;BME280;43720;47.462;19.030;2024-02-26T09:56:38;99567.28;;;12.28;100.00
57904;BME280;43720;47.462;19.030;2024-02-26T09:59:59;99574.19;;;12.41;100.00
57904;BME280;43720;47.462;19.030;2024-02-26T10:03:12;99575.06;;;12.38;100.00
57904;BME280;43720;47.462;19.030;2024-02-26T10:06:16;99568.13;;;12.36;100.00
57904;BME280;43720;47.462;19.030;2024-02-26T10:09:19;99566.47;;;12.16;100.00
57904;BME280;43720;47.462;19.030;2024-02-26T10:12:23;99565.50;;;12.31;100.00
57904;BME280;43720;47.462;19.030;2024-02-26T10:15:26;99567.19;;;12.41;100.00
57904;BME280;43720;47.462;19.030;2024-02-26T10:18:51;99564.50;;;12.54;100.00
57904;BME280;43720;47.462;19.030;2024-02-26T10:22:01;99564.47;;;12.57;100.00
57904;BME280;43720;47.462;19.030;2024-02-26T10:25:05;99560.75;;;12.90;100.00
57904;BME280;43720;47.462;19.030;2024-02-26T10:28:09;99563.25;;;13.01;100.00
57904;BME280;43720;47.462;19.030;2024-02-26T10:31:13;99557.66;;;13.42;100.00
57904;BME280;43720;47.462;19.030;2024-02-26T10:34:16;99558.84;;;13.92;100.00
57904;BME280;43720;47.462;19.030;2024-02-26T10:37:19;99554.22;;;14.09;100.00
57904;BME280;43720;47.462;19.030;2024-02-26T10:40:21;99549.94;;;14.04;100.00
57904;BME280;43720;47.462;19.030;2024-02-26T10:43:25;99542.00;;;14.10;100.00
57904;BME280;43720;47.462;19.030;2024-02-26T10:46:27;99539.25;;;14.17;100.00
57904;BME280;43720;47.462;19.030;2024-02-26T10:49:30;99540.12;;;14.18;100.00
57904;BME280;43720;47.462;19.030;2024-02-26T10:52:34;99527.06;;;14.12;100.00
57904;BME280;43720;47.462;19.030;2024-02-26T10:55:36;99522.66;;;14.12;100.00
57904;BME280;43720;47.462;19.030;2024-02-26T10:58:40;99520.84;;;14.16;100.00
57904;BME280;43720;47.462;19.030;2024-02-26T11:01:43;99517.47;;;14.08;100.00
57904;BME280;43720;47.462;19.030;2024-02-26T11:04:49;99516.53;;;14.12;100.00
57904;BME280;43720;47.462;19.030;2024-02-26T11:07:52;99527.19;;;14.01;100.00
57904;BME280;43720;47.462;19.030;2024-02-26T11:10:56;99519.06;;;14.19;100.00
57904;BME280;43720;47.462;19.030;2024-02-26T11:13:58;99518.88;;;14.33;100.00
57904;BME280;43720;47.462;19.030;2024-02-26T11:17:02;99518.75;;;14.41;100.00
57904;BME280;43720;47.462;19.030;2024-02-26T11:20:06;99519.28;;;14.66;100.00
57904;BME280;43720;47.462;19.030;2024-02-26T11:23:11;99524.56;;;14.64;100.00
57904;BME280;43720;47.462;19.030;2024-02-26T11:26:16;99528.84;;;14.72;100.00
57904;BME280;43720;47.462;19.030;2024-02-26T11:29:21;99527.00;;;14.77;100.00
57904;BME280;43720;47.462;19.030;2024-02-26T11:32:26;99522.97;;;15.07;100.00
57904;BME280;43720;47.462;19.030;2024-02-26T11:35:28;99522.78;;;15.17;100.00
57904;BME280;43720;47.462;19.030;2024-02-26T11:38:32;99525.84;;;14.95;100.00
57904;BME280;43720;47.462;19.030;2024-02-26T11:41:36;99521.34;;;14.98;100.00
57904;BME280;43720;47.462;19.030;2024-02-26T11:44:38;99519.94;;;15.30;100.00
57904;BME280;43720;47.462;19.030;2024-02-26T11:47:41;99518.75;;;15.46;100.00
57904;BME280;43720;47.462;19.030;2024-02-26T11:50:54;99510.00;;;15.89;99.50
57904;BME280;43720;47.462;19.030;2024-02-26T11:53:57;99518.13;;;15.80;98.83
57904;BME280;43720;47.462;19.030;2024-02-26T11:57:01;99522.00;;;15.59;100.00
57904;BME280;43720;47.462;19.030;2024-02-26T12:03:09;99521.28;;;15.51;100.00
57904;BME280;43720;47.462;19.030;2024-02-26T12:06:14;99520.47;;;15.47;99.06
57904;BME280;43720;47.462;19.030;2024-02-26T12:09:38;99511.84;;;15.39;99.11
57904;BME280;43720;47.462;19.030;2024-02-26T12:12:41;99516.22;;;15.40;99.84
57904;BME280;43720;47.462;19.030;2024-02-26T12:15:45;99512.38;;;15.56;100.00
57904;BME280;43720;47.462;19.030;2024-02-26T12:18:48;99506.78;;;15.75;100.00
57904;BME280;43720;47.462;19.030;2024-02-26T12:22:02;99508.41;;;15.82;98.20
57904;BME280;43720;47.462;19.030;2024-02-26T12:25:10;99508.13;;;15.96;99.36
57904;BME280;43720;47.462;19.030;2024-02-26T12:28:13;99503.38;;;16.10;96.31
57904;BME280;43720;47.462;19.030;2024-02-26T12:31:16;99501.19;;;15.90;95.49
57904;BME280;43720;47.462;19.030;2024-02-26T12:34:20;99504.34;;;15.65;95.33
57904;BME280;43720;47.462;19.030;2024-02-26T12:37:22;99503.03;;;15.41;97.65
57904;BME280;43720;47.462;19.030;2024-02-26T12:40:25;99506.41;;;15.48;100.00
57904;BME280;43720;47.462;19.030;2024-02-26T12:43:29;99501.78;;;15.61;97.39
57904;BME280;43720;47.462;19.030;2024-02-26T12:46:32;99492.03;;;15.66;95.90
57904;BME280;43720;47.462;19.030;2024-02-26T12:49:34;99504.63;;;15.50;95.64
57904;BME280;43720;47.462;19.030;2024-02-26T12:52:45;99504.41;;;15.59;98.31
57904;BME280;43720;47.462;19.030;2024-02-26T12:55:48;99506.78;;;15.75;98.84
57904;BME280;43720;47.462;19.030;2024-02-26T12:58:51;99493.31;;;15.88;96.82
57904;BME280;43720;47.462;19.030;2024-02-26T13:01:54;99495.00;;;15.91;96.24
57904;BME280;43720;47.462;19.030;2024-02-26T13:04:57;99496.94;;;15.84;96.76
57904;BME280;43720;47.462;19.030;2024-02-26T13:08:03;99501.25;;;15.87;98.14
57904;BME280;43720;47.462;19.030;2024-02-26T13:11:10;99508.78;;;16.05;96.87
57904;BME280;43720;47.462;19.030;2024-02-26T13:14:22;99508.19;;;15.91;97.16
57904;BME280;43720;47.462;19.030;2024-02-26T13:17:25;99503.81;;;15.90;95.76
57904;BME280;43720;47.462;19.030;2024-02-26T13:20:30;99509.84;;;15.97;94.10
57904;BME280;43720;47.462;19.030;2024-02-26T13:23:33;99503.44;;;16.08;95.67
57904;BME280;43720;47.462;19.030;2024-02-26T13:26:36;99497.47;;;15.99;93.10
57904;BME280;43720;47.462;19.030;2024-02-26T13:29:38;99500.16;;;15.97;94.57
57904;BME280;43720;47.462;19.030;2024-02-26T13:32:41;99500.91;;;16.04;95.69
57904;BME280;43720;47.462;19.030;2024-02-26T13:35:43;99498.00;;;16.14;93.62
57904;BME280;43720;47.462;19.030;2024-02-26T13:38:55;99498.41;;;16.36;94.31
57904;BME280;43720;47.462;19.030;2024-02-26T13:41:57;99489.75;;;16.30;92.62
57904;BME280;43720;47.462;19.030;2024-02-26T13:45:00;99496.78;;;16.29;92.38
57904;BME280;43720;47.462;19.030;2024-02-26T13:48:04;99500.28;;;16.30;91.65
57904;BME280;43720;47.462;19.030;2024-02-26T13:51:07;99500.06;;;16.02;92.69
57904;BME280;43720;47.462;19.030;2024-02-26T13:54:10;99506.47;;;15.90;93.15
57904;BME280;43720;47.462;19.030;2024-02-26T13:57:12;99506.28;;;15.99;94.58
57904;BME280;43720;47.462;19.030;2024-02-26T14:00:15;99497.69;;;15.89;93.57
57904;BME280;43720;47.462;19.030;2024-02-26T14:03:19;99495.16;;;15.85;93.04
57904;BME280;43720;47.462;19.030;2024-02-26T14:06:21;99495.53;;;15.67;95.50
57904;BME280;43720;47.462;19.030;2024-02-26T14:09:24;99485.91;;;15.65;93.55
57904;BME280;43720;47.462;19.030;2024-02-26T14:12:36;99484.75;;;15.34;95.43
57904;BME280;43720;47.462;19.030;2024-02-26T14:15:39;99487.28;;;15.37;94.34
57904;BME280;43720;47.462;19.030;2024-02-26T14:18:42;99482.28;;;15.25;95.83
57904;BME280;43720;47.462;19.030;2024-02-26T14:21:46;99474.50;;;15.17;97.07
57904;BME280;43720;47.462;19.030;2024-02-26T14:24:49;99478.97;;;15.15;97.98
57904;BME280;43720;47.462;19.030;2024-02-26T14:27:51;99479.59;;;15.28;95.57
57904;BME280;43720;47.462;19.030;2024-02-26T14:30:54;99482.31;;;15.23;95.30
57904;BME280;43720;47.462;19.030;2024-02-26T14:33:56;99484.91;;;15.25;96.52
57904;BME280;43720;47.462;19.030;2024-02-26T14:36:59;99483.09;;;15.28;97.56
57904;BME280;43720;47.462;19.030;2024-02-26T14:40:01;99479.62;;;15.25;96.12
57904;BME280;43720;47.462;19.030;2024-02-26T14:43:07;99493.16;;;15.06;98.52
57904;BME280;43720;47.462;19.030;2024-02-26T14:46:12;99487.41;;;14.83;96.79
57904;BME280;43720;47.462;19.030;2024-02-26T14:49:14;99493.69;;;14.74;97.88
57904;BME280;43720;47.462;19.030;2024-02-26T14:52:17;99493.56;;;14.82;97.45
57904;BME280;43720;47.462;19.030;2024-02-26T14:55:21;99488.25;;;14.85;97.03
57904;BME280;43720;47.462;19.030;2024-02-26T14:58:24;99487.62;;;14.72;99.52
57904;BME280;43720;47.462;19.030;2024-02-26T15:01:26;99492.63;;;14.86;100.00
57904;BME280;43720;47.462;19.030;2024-02-26T15:04:29;99494.44;;;14.84;99.83
57904;BME280;43720;47.462;19.030;2024-02-26T15:07:31;99484.72;;;14.86;100.00
57904;BME280;43720;47.462;19.030;2024-02-26T15:10:33;99493.62;;;14.79;98.86
57904;BME280;43720;47.462;19.030;2024-02-26T15:13:35;99496.31;;;14.76;99.90
57904;BME280;43720;47.462;19.030;2024-02-26T15:16:38;99500.94;;;14.61;99.43
57904;BME280;43720;47.462;19.030;2024-02-26T15:19:40;99502.97;;;14.41;100.00
57904;BME280;43720;47.462;19.030;2024-02-26T15:22:43;99512.87;;;14.25;100.00
57904;BME280;43720;47.462;19.030;2024-02-26T15:25:45;99502.31;;;14.27;100.00
57904;BME280;43720;47.462;19.030;2024-02-26T15:28:48;99509.56;;;14.11;100.00
57904;BME280;43720;47.462;19.030;2024-02-26T15:31:50;99512.34;;;13.99;100.00
57904;BME280;43720;47.462;19.030;2024-02-26T15:34:53;99511.69;;;13.83;100.00
57904;BME280;43720;47.462;19.030;2024-02-26T15:37:56;99512.72;;;13.69;100.00
57904;BME280;43720;47.462;19.030;2024-02-26T15:40:58;99522.50;;;13.57;100.00
57904;BME280;43720;47.462;19.030;2024-02-26T15:44:01;99519.06;;;13.50;100.00
57904;BME280;43720;47.462;19.030;2024-02-26T15:47:05;99520.06;;;13.40;100.00
57904;BME280;43720;47.462;19.030;2024-02-26T15:50:08;99521.84;;;13.35;100.00
57904;BME280;43720;47.462;19.030;2024-02-26T15:53:12;99534.19;;;13.27;100.00
57904;BME280;43720;47.462;19.030;2024-02-26T15:56:15;99531.59;;;13.19;100.00
57904;BME280;43720;47.462;19.030;2024-02-26T15:59:19;99535.13;;;13.18;100.00
57904;BME280;43720;47.462;19.030;2024-02-26T16:02:22;99530.88;;;13.06;100.00
57904;BME280;43720;47.462;19.030;2024-02-26T16:05:24;99531.00;;;12.91;100.00
57904;BME280;43720;47.462;19.030;2024-02-26T16:08:27;99530.19;;;12.86;100.00
57904;BME280;43720;47.462;19.030;2024-02-26T16:11:29;99531.09;;;12.77;100.00
57904;BME280;43720;47.462;19.030;2024-02-26T16:14:46;99530.31;;;12.66;100.00
57904;BME280;43720;47.462;19.030;2024-02-26T16:17:50;99535.59;;;12.61;100.00
57904;BME280;43720;47.462;19.030;2024-02-26T16:20:54;99540.00;;;12.59;100.00
57904;BME280;43720;47.462;19.030;2024-02-26T16:23:57;99550.53;;;12.55;100.00
57904;BME280;43720;47.462;19.030;2024-02-26T16:27:00;99559.28;;;12.49;100.00
